sensor_id;sensor_type;location;lat;lon;timestamp;pressure;altitude;pressure_sealevel;temperature;humidity
76858;BME280;65830;0.000;0.000;2023-04-25T00:03:32;99005.34;;;14.63;67.80
76858;BME280;65830;0.000;0.000;2023-04-25T00:06:39;99005.16;;;14.65;67.71
76858;BME280;65830;0.000;0.000;2023-04-25T00:09:08;99011.44;;;14.72;66.66
76858;BME280;65830;0.000;0.000;2023-04-25T00:11:35;98992.91;;;14.70;67.09
76858;BME280;65830;0.000;0.000;2023-04-25T00:14:01;98992.91;;;14.70;67.60
76858;BME280;65830;0.000;0.000;2023-04-25T00:16:46;98985.94;;;14.69;68.19
76858;BME280;65830;0.000;0.000;2023-04-25T00:19:44;98973.97;;;14.65;65.56
76858;BME280;65830;0.000;0.000;2023-04-25T00:22:32;98983.81;;;14.65;67.69
76858;BME280;65830;0.000;0.000;2023-04-25T00:25:14;98983.69;;;14.58;68.20
76858;BME280;65830;0.000;0.000;2023-04-25T00:27:44;98984.72;;;14.57;67.39
76858;BME280;65830;0.000;0.000;2023-04-25T00:30:24;98974.03;;;14.57;66.12
76858;BME280;65830;0.000;0.000;2023-04-25T00:36:26;98967.38;;;14.53;65.86
76858;BME280;65830;0.000;0.000;2023-04-25T00:43:40;98964.09;;;14.43;69.22
76858;BME280;65830;0.000;0.000;2023-04-25T00:46:57;98962.72;;;14.32;68.61
76858;BME280;65830;0.000;0.000;2023-04-25T01:16:07;98982.13;;;14.41;66.93
76858;BME280;65830;0.000;0.000;2023-04-25T01:21:30;98985.78;;;14.25;69.19
76858;BME280;65830;0.000;0.000;2023-04-25T01:23:56;98976.69;;;14.19;68.24
76858;BME280;65830;0.000;0.000;2023-04-25T01:26:22;98976.13;;;14.24;67.76
76858;BME280;65830;0.000;0.000;2023-04-25T01:28:48;98978.91;;;14.30;68.35
76858;BME280;65830;0.000;0.000;2023-04-25T01:31:14;98985.34;;;14.36;67.78
76858;BME280;65830;0.000;0.000;2023-04-25T01:33:39;98973.38;;;14.32;68.89
76858;BME280;65830;0.000;0.000;2023-04-25T01:36:05;98974.59;;;14.29;66.93
76858;BME280;65830;0.000;0.000;2023-04-25T01:38:33;98970.88;;;14.30;68.36
76858;BME280;65830;0.000;0.000;2023-04-25T01:40:59;98957.84;;;14.36;67.92
76858;BME280;65830;0.000;0.000;2023-04-25T01:43:25;98965.84;;;14.36;68.99
76858;BME280;65830;0.000;0.000;2023-04-25T01:45:51;98970.41;;;14.27;68.55
76858;BME280;65830;0.000;0.000;2023-04-25T01:48:17;98977.19;;;14.15;69.88
76858;BME280;65830;0.000;0.000;2023-04-25T01:50:43;98965.34;;;14.17;67.73
76858;BME280;65830;0.000;0.000;2023-04-25T01:53:10;98970.69;;;14.17;70.06
76858;BME280;65830;0.000;0.000;2023-04-25T01:55:37;98963.84;;;14.15;70.20
76858;BME280;65830;0.000;0.000;2023-04-25T01:58:10;98958.03;;;14.11;70.35
76858;BME280;65830;0.000;0.000;2023-04-25T02:00:55;98947.66;;;14.16;69.63
76858;BME280;65830;0.000;0.000;2023-04-25T02:03:24;98957.34;;;14.17;68.45
76858;BME280;65830;0.000;0.000;2023-04-25T02:05:50;98960.66;;;14.19;69.62
76858;BME280;65830;0.000;0.000;2023-04-25T02:08:16;98949.78;;;14.21;69.07
76858;BME280;65830;0.000;0.000;2023-04-25T02:10:43;98957.16;;;14.19;69.14
76858;BME280;65830;0.000;0.000;2023-04-25T02:13:13;98949.78;;;14.21;69.40
76858;BME280;65830;0.000;0.000;2023-04-25T02:15:46;98954.84;;;14.16;70.32
76858;BME280;65830;0.000;0.000;2023-04-25T02:18:17;98960.84;;;14.18;70.42
76858;BME280;65830;0.000;0.000;2023-04-25T02:20:43;98947.66;;;14.16;68.53
76858;BME280;65830;0.000;0.000;2023-04-25T02:23:09;98949.63;;;14.22;70.20
76858;BME280;65830;0.000;0.000;2023-04-25T02:25:34;98953.47;;;14.20;69.04
76858;BME280;65830;0.000;0.000;2023-04-25T02:28:00;98947.66;;;14.16;69.71
76858;BME280;65830;0.000;0.000;2023-04-25T02:30:26;98952.53;;;14.13;70.48
76858;BME280;65830;0.000;0.000;2023-04-25T02:36:40;98940.47;;;14.02;69.62
76858;BME280;65830;0.000;0.000;2023-04-25T03:40:49;98941.38;;;13.63;71.19
76858;BME280;65830;0.000;0.000;2023-04-25T03:44:16;98931.53;;;13.63;71.03
76858;BME280;65830;0.000;0.000;2023-04-25T03:47:19;98931.44;;;13.57;71.42
76858;BME280;65830;0.000;0.000;2023-04-25T03:50:12;98925.94;;;13.58;69.59
76858;BME280;65830;0.000;0.000;2023-04-25T03:52:44;98931.75;;;13.54;71.05
76858;BME280;65830;0.000;0.000;2023-04-25T03:55:39;98926.44;;;13.54;70.81
76858;BME280;65830;0.000;0.000;2023-04-25T03:58:06;98934.00;;;13.42;71.64
76858;BME280;65830;0.000;0.000;2023-04-25T04:00:33;98929.81;;;13.47;70.49
76858;BME280;65830;0.000;0.000;2023-04-25T04:02:59;98919.81;;;13.49;71.23
76858;BME280;65830;0.000;0.000;2023-04-25T04:05:25;98916.16;;;13.50;70.86
76858;BME280;65830;0.000;0.000;2023-04-25T04:07:54;98919.94;;;13.56;70.29
76858;BME280;65830;0.000;0.000;2023-04-25T04:10:21;98920.78;;;13.57;70.12
76858;BME280;65830;0.000;0.000;2023-04-25T04:12:46;98923.91;;;13.60;70.29
76858;BME280;65830;0.000;0.000;2023-04-25T04:15:12;98919.72;;;13.66;69.84
76858;BME280;65830;0.000;0.000;2023-04-25T04:17:38;98914.50;;;13.73;69.90
76858;BME280;65830;0.000;0.000;2023-04-25T04:20:05;98920.31;;;13.76;69.11
76858;BME280;65830;0.000;0.000;2023-04-25T04:22:32;98927.28;;;13.77;69.69
76858;BME280;65830;0.000;0.000;2023-04-25T04:25:15;98929.25;;;13.83;70.46
76858;BME280;65830;0.000;0.000;2023-04-25T04:28:35;98944.34;;;13.91;69.75
76858;BME280;65830;0.000;0.000;2023-04-25T04:31:13;98941.50;;;13.93;69.41
76858;BME280;65830;0.000;0.000;2023-04-25T04:33:52;98941.16;;;13.96;69.42
76858;BME280;65830;0.000;0.000;2023-04-25T04:36:19;98945.78;;;14.02;69.35
76858;BME280;65830;0.000;0.000;2023-04-25T04:38:54;98940.09;;;14.05;68.74
76858;BME280;65830;0.000;0.000;2023-04-25T04:41:54;98938.19;;;14.14;69.26
76858;BME280;65830;0.000;0.000;2023-04-25T04:44:54;98937.81;;;14.17;67.75
76858;BME280;65830;0.000;0.000;2023-04-25T04:47:38;98933.13;;;14.19;67.61
76858;BME280;65830;0.000;0.000;2023-04-25T04:50:18;98937.94;;;14.23;68.27
76858;BME280;65830;0.000;0.000;2023-04-25T04:53:03;98936.28;;;14.22;68.34
76858;BME280;65830;0.000;0.000;2023-04-25T04:55:56;98944.75;;;14.26;67.85
76858;BME280;65830;0.000;0.000;2023-04-25T04:58:43;98955.91;;;14.29;67.78
76858;BME280;65830;0.000;0.000;2023-04-25T05:01:28;98945.50;;;14.35;67.43
76858;BME280;65830;0.000;0.000;2023-04-25T05:04:01;98939.34;;;14.34;67.93
76858;BME280;65830;0.000;0.000;2023-04-25T05:06:54;98951.69;;;14.35;67.34
76858;BME280;65830;0.000;0.000;2023-04-25T05:09:38;98954.78;;;14.24;68.21
76858;BME280;65830;0.000;0.000;2023-04-25T05:12:22;98947.25;;;14.27;68.10
76858;BME280;65830;0.000;0.000;2023-04-25T05:15:14;98947.19;;;14.36;66.92
76858;BME280;65830;0.000;0.000;2023-04-25T05:18:00;98944.44;;;14.44;67.95
76858;BME280;65830;0.000;0.000;2023-04-25T05:20:54;98940.38;;;14.48;68.16
76858;BME280;65830;0.000;0.000;2023-04-25T05:23:36;98935.63;;;14.58;68.44
76858;BME280;65830;0.000;0.000;2023-04-25T05:26:20;98943.13;;;14.63;67.91
76858;BME280;65830;0.000;0.000;2023-04-25T05:28:59;98940.53;;;14.69;67.72
76858;BME280;65830;0.000;0.000;2023-04-25T05:31:34;98948.16;;;14.73;67.84
76858;BME280;65830;0.000;0.000;2023-04-25T05:34:04;98941.81;;;14.74;67.28
76858;BME280;65830;0.000;0.000;2023-04-25T05:36:42;98945.06;;;14.69;67.15
76858;BME280;65830;0.000;0.000;2023-04-25T05:39:09;98944.94;;;14.62;67.38
76858;BME280;65830;0.000;0.000;2023-04-25T05:41:53;98947.00;;;14.52;67.56
76858;BME280;65830;0.000;0.000;2023-04-25T05:44:37;98940.47;;;14.55;68.07
76858;BME280;65830;0.000;0.000;2023-04-25T05:47:23;98943.16;;;14.55;67.88
76858;BME280;65830;0.000;0.000;2023-04-25T05:50:14;98941.69;;;14.52;67.41
76858;BME280;65830;0.000;0.000;2023-04-25T05:53:09;98945.66;;;14.56;67.52
76858;BME280;65830;0.000;0.000;2023-04-25T05:55:39;98945.31;;;14.59;66.64
76858;BME280;65830;0.000;0.000;2023-04-25T05:58:22;98940.25;;;14.64;66.62
76858;BME280;65830;0.000;0.000;2023-04-25T06:00:48;98942.19;;;14.70;66.01
76858;BME280;65830;0.000;0.000;2023-04-25T06:03:14;98936.84;;;14.70;67.68
76858;BME280;65830;0.000;0.000;2023-04-25T06:05:43;98940.09;;;14.81;65.76
76858;BME280;65830;0.000;0.000;2023-04-25T06:08:12;98942.75;;;14.96;67.12
76858;BME280;65830;0.000;0.000;2023-04-25T06:10:38;98936.38;;;15.12;66.17
76858;BME280;65830;0.000;0.000;2023-04-25T06:13:04;98932.03;;;15.25;64.97
76858;BME280;65830;0.000;0.000;2023-04-25T06:15:30;98934.47;;;15.42;64.72
76858;BME280;65830;0.000;0.000;2023-04-25T06:17:59;98925.41;;;15.58;64.16
76858;BME280;65830;0.000;0.000;2023-04-25T06:20:24;98929.94;;;15.57;64.23
76858;BME280;65830;0.000;0.000;2023-04-25T06:22:51;98926.88;;;15.60;64.44
76858;BME280;65830;0.000;0.000;2023-04-25T06:25:17;98928.34;;;15.63;63.97
76858;BME280;65830;0.000;0.000;2023-04-25T06:27:42;98921.78;;;15.65;63.76
76858;BME280;65830;0.000;0.000;2023-04-25T06:30:08;98927.06;;;15.59;64.96
76858;BME280;65830;0.000;0.000;2023-04-25T06:32:35;98922.19;;;15.62;65.31
76858;BME280;65830;0.000;0.000;2023-04-25T06:35:00;98925.22;;;15.74;65.78
76858;BME280;65830;0.000;0.000;2023-04-25T06:37:26;98919.78;;;15.89;65.67
76858;BME280;65830;0.000;0.000;2023-04-25T06:39:52;98922.66;;;16.09;65.48
76858;BME280;65830;0.000;0.000;2023-04-25T06:42:17;98911.16;;;16.15;64.32
76858;BME280;65830;0.000;0.000;2023-04-25T06:44:56;98916.91;;;16.12;64.30
76858;BME280;65830;0.000;0.000;2023-04-25T06:47:22;98913.94;;;16.00;64.36
76858;BME280;65830;0.000;0.000;2023-04-25T06:49:49;98916.22;;;16.03;64.52
76858;BME280;65830;0.000;0.000;2023-04-25T06:52:14;98919.28;;;16.00;64.97
76858;BME280;65830;0.000;0.000;2023-04-25T06:54:40;98917.28;;;16.09;64.28
76858;BME280;65830;0.000;0.000;2023-04-25T06:57:23;98919.66;;;16.19;64.16
76858;BME280;65830;0.000;0.000;2023-04-25T06:59:49;98916.78;;;16.20;63.59
76858;BME280;65830;0.000;0.000;2023-04-25T07:02:14;98916.59;;;16.22;63.92
76858;BME280;65830;0.000;0.000;2023-04-25T07:04:41;98926.75;;;16.33;64.19
76858;BME280;65830;0.000;0.000;2023-04-25T07:07:08;98920.84;;;16.38;63.84
76858;BME280;65830;0.000;0.000;2023-04-25T07:09:44;98918.00;;;16.46;62.91
76858;BME280;65830;0.000;0.000;2023-04-25T07:12:10;98920.50;;;16.47;62.57
76858;BME280;65830;0.000;0.000;2023-04-25T07:14:35;98914.94;;;16.49;62.60
76858;BME280;65830;0.000;0.000;2023-04-25T07:17:01;98915.81;;;16.56;63.36
76858;BME280;65830;0.000;0.000;2023-04-25T07:19:28;98923.13;;;16.69;62.69
76858;BME280;65830;0.000;0.000;2023-04-25T07:21:57;98911.66;;;16.82;61.83
76858;BME280;65830;0.000;0.000;2023-04-25T07:24:23;98911.91;;;16.87;61.86
76858;BME280;65830;0.000;0.000;2023-04-25T07:26:50;98911.34;;;16.98;61.47
76858;BME280;65830;0.000;0.000;2023-04-25T07:29:23;98907.53;;;17.21;61.12
76858;BME280;65830;0.000;0.000;2023-04-25T07:31:49;98902.06;;;17.42;59.93
76858;BME280;65830;0.000;0.000;2023-04-25T07:34:15;98899.19;;;17.57;59.22
76858;BME280;65830;0.000;0.000;2023-04-25T07:36:41;98904.75;;;17.56;59.05
76858;BME280;65830;0.000;0.000;2023-04-25T07:39:07;98899.38;;;17.56;58.85
76858;BME280;65830;0.000;0.000;2023-04-25T07:41:35;98893.56;;;16.91;59.62
76858;BME280;65830;0.000;0.000;2023-04-25T07:44:00;98893.59;;;16.62;61.76
76858;BME280;65830;0.000;0.000;2023-04-25T07:46:26;98892.38;;;16.93;60.62
76858;BME280;65830;0.000;0.000;2023-04-25T07:48:52;98893.72;;;17.24;60.47
76858;BME280;65830;0.000;0.000;2023-04-25T07:51:18;98884.28;;;17.35;59.45
76858;BME280;65830;0.000;0.000;2023-04-25T07:53:45;98890.69;;;17.40;59.21
76858;BME280;65830;0.000;0.000;2023-04-25T07:56:14;98889.66;;;17.41;58.82
76858;BME280;65830;0.000;0.000;2023-04-25T07:58:42;98885.34;;;17.40;58.63
76858;BME280;65830;0.000;0.000;2023-04-25T08:01:10;98873.94;;;17.32;58.62
76858;BME280;65830;0.000;0.000;2023-04-25T08:03:46;98871.88;;;17.34;58.79
76858;BME280;65830;0.000;0.000;2023-04-25T08:06:21;98876.88;;;17.43;58.22
76858;BME280;65830;0.000;0.000;2023-04-25T08:08:55;98882.06;;;17.58;58.18
76858;BME280;65830;0.000;0.000;2023-04-25T08:11:26;98887.66;;;17.70;58.21
76858;BME280;65830;0.000;0.000;2023-04-25T08:13:52;98890.97;;;17.72;58.06
76858;BME280;65830;0.000;0.000;2023-04-25T08:16:18;98899.03;;;17.79;57.71
76858;BME280;65830;0.000;0.000;2023-04-25T08:18:43;98889.38;;;17.84;56.09
76858;BME280;65830;0.000;0.000;2023-04-25T08:21:18;98893.09;;;17.90;55.50
76858;BME280;65830;0.000;0.000;2023-04-25T08:23:44;98888.28;;;17.79;55.55
76858;BME280;65830;0.000;0.000;2023-04-25T08:26:13;98894.91;;;17.83;54.98
76858;BME280;65830;0.000;0.000;2023-04-25T08:28:41;98892.06;;;18.04;54.92
76858;BME280;65830;0.000;0.000;2023-04-25T08:31:06;98887.28;;;18.33;54.52
76858;BME280;65830;0.000;0.000;2023-04-25T08:33:41;98889.34;;;18.58;53.79
76858;BME280;65830;0.000;0.000;2023-04-25T08:36:17;98890.31;;;18.77;52.57
76858;BME280;65830;0.000;0.000;2023-04-25T08:38:44;98886.41;;;18.86;52.37
76858;BME280;65830;0.000;0.000;2023-04-25T08:41:11;98884.94;;;18.90;51.94
76858;BME280;65830;0.000;0.000;2023-04-25T08:43:37;98896.31;;;18.92;51.23
76858;BME280;65830;0.000;0.000;2023-04-25T08:46:10;98903.59;;;18.85;50.73
76858;BME280;65830;0.000;0.000;2023-04-25T08:48:45;98898.59;;;18.69;51.44
76858;BME280;65830;0.000;0.000;2023-04-25T08:51:10;98900.06;;;18.64;52.06
76858;BME280;65830;0.000;0.000;2023-04-25T08:53:40;98894.69;;;18.51;51.83
76858;BME280;65830;0.000;0.000;2023-04-25T08:56:08;98900.06;;;18.51;52.43
76858;BME280;65830;0.000;0.000;2023-04-25T08:58:35;98903.00;;;18.16;53.26
76858;BME280;65830;0.000;0.000;2023-04-25T09:01:01;98903.03;;;18.10;53.68
76858;BME280;65830;0.000;0.000;2023-04-25T09:03:31;98909.19;;;18.03;53.91
76858;BME280;65830;0.000;0.000;2023-04-25T09:05:56;98904.66;;;18.04;53.93
76858;BME280;65830;0.000;0.000;2023-04-25T09:08:23;98903.41;;;18.26;52.86
76858;BME280;65830;0.000;0.000;2023-04-25T09:10:48;98903.22;;;18.41;52.88
76858;BME280;65830;0.000;0.000;2023-04-25T09:13:14;98898.03;;;18.40;52.57
76858;BME280;65830;0.000;0.000;2023-04-25T09:15:58;98904.44;;;18.39;53.56
76858;BME280;65830;0.000;0.000;2023-04-25T09:18:45;98908.16;;;18.31;53.93
76858;BME280;65830;0.000;0.000;2023-04-25T09:21:12;98895.34;;;18.26;54.52
76858;BME280;65830;0.000;0.000;2023-04-25T09:23:43;98897.63;;;18.36;54.75
76858;BME280;65830;0.000;0.000;2023-04-25T09:26:09;98887.66;;;18.57;54.59
76858;BME280;65830;0.000;0.000;2023-04-25T09:28:35;98890.78;;;18.60;54.42
76858;BME280;65830;0.000;0.000;2023-04-25T09:31:01;98895.13;;;18.61;54.81
76858;BME280;65830;0.000;0.000;2023-04-25T09:33:40;98891.19;;;18.64;54.42
76858;BME280;65830;0.000;0.000;2023-04-25T09:36:08;98892.66;;;18.53;54.42
76858;BME280;65830;0.000;0.000;2023-04-25T09:38:47;98889.72;;;18.68;53.88
76858;BME280;65830;0.000;0.000;2023-04-25T09:41:39;98882.31;;;18.63;54.32
76858;BME280;65830;0.000;0.000;2023-04-25T09:44:06;98879.81;;;18.75;54.21
76858;BME280;65830;0.000;0.000;2023-04-25T09:46:35;98866.56;;;18.80;53.74
76858;BME280;65830;0.000;0.000;2023-04-25T09:49:19;98868.56;;;18.98;53.32
76858;BME280;65830;0.000;0.000;2023-04-25T09:52:07;98865.03;;;19.04;54.02
76858;BME280;65830;0.000;0.000;2023-04-25T09:54:48;98865.09;;;18.91;53.13
76858;BME280;65830;0.000;0.000;2023-04-25T09:57:20;98863.28;;;18.58;53.08
76858;BME280;65830;0.000;0.000;2023-04-25T09:59:54;98861.84;;;18.49;53.40
76858;BME280;65830;0.000;0.000;2023-04-25T10:02:21;98842.63;;;18.59;52.45
76858;BME280;65830;0.000;0.000;2023-04-25T10:04:51;98834.31;;;18.74;52.92
76858;BME280;65830;0.000;0.000;2023-04-25T10:07:22;98826.06;;;18.75;52.84
76858;BME280;65830;0.000;0.000;2023-04-25T10:09:53;98833.09;;;18.63;52.36
76858;BME280;65830;0.000;0.000;2023-04-25T10:12:20;98824.69;;;18.46;52.18
76858;BME280;65830;0.000;0.000;2023-04-25T10:14:46;98817.47;;;18.40;52.56
76858;BME280;65830;0.000;0.000;2023-04-25T10:17:12;98815.56;;;18.47;52.99
76858;BME280;65830;0.000;0.000;2023-04-25T10:19:39;98814.53;;;18.61;53.06
76858;BME280;65830;0.000;0.000;2023-04-25T10:22:08;98801.47;;;18.65;52.93
76858;BME280;65830;0.000;0.000;2023-04-25T10:24:37;98805.41;;;18.69;52.91
76858;BME280;65830;0.000;0.000;2023-04-25T10:27:04;98792.25;;;18.41;51.60
76858;BME280;65830;0.000;0.000;2023-04-25T10:29:29;98791.63;;;18.45;50.61
76858;BME280;65830;0.000;0.000;2023-04-25T10:31:55;98786.44;;;18.51;50.78
76858;BME280;65830;0.000;0.000;2023-04-25T10:34:37;98782.28;;;18.55;50.75
76858;BME280;65830;0.000;0.000;2023-04-25T10:37:03;98767.63;;;18.57;49.81
76858;BME280;65830;0.000;0.000;2023-04-25T10:39:29;98762.38;;;18.76;51.33
76858;BME280;65830;0.000;0.000;2023-04-25T10:41:58;98756.78;;;18.77;48.59
76858;BME280;65830;0.000;0.000;2023-04-25T10:44:27;98746.63;;;18.86;49.21
76858;BME280;65830;0.000;0.000;2023-04-25T10:46:57;98739.19;;;18.88;49.03
76858;BME280;65830;0.000;0.000;2023-04-25T10:49:41;98750.72;;;18.95;48.96
76858;BME280;65830;0.000;0.000;2023-04-25T10:54:39;98747.00;;;18.96;49.26
76858;BME280;65830;0.000;0.000;2023-04-25T10:57:05;98727.03;;;19.17;49.89
76858;BME280;65830;0.000;0.000;2023-04-25T10:59:30;98736.22;;;19.35;50.18
76858;BME280;65830;0.000;0.000;2023-04-25T11:01:56;98722.28;;;19.44;49.37
76858;BME280;65830;0.000;0.000;2023-04-25T11:04:29;98718.84;;;19.56;49.00
76858;BME280;65830;0.000;0.000;2023-04-25T11:09:20;98712.66;;;19.80;48.49
76858;BME280;65830;0.000;0.000;2023-04-25T11:11:58;98714.34;;;20.00;48.71
76858;BME280;65830;0.000;0.000;2023-04-25T11:14:25;98718.88;;;19.99;48.32
76858;BME280;65830;0.000;0.000;2023-04-25T11:16:53;98711.34;;;20.08;48.02
76858;BME280;65830;0.000;0.000;2023-04-25T11:19:21;98704.75;;;20.22;47.75
76858;BME280;65830;0.000;0.000;2023-04-25T11:21:47;98708.41;;;20.47;47.04
76858;BME280;65830;0.000;0.000;2023-04-25T11:24:12;98710.59;;;20.87;45.88
76858;BME280;65830;0.000;0.000;2023-04-25T11:26:38;98705.75;;;21.07;45.00
76858;BME280;65830;0.000;0.000;2023-04-25T11:29:06;98701.88;;;21.03;46.28
76858;BME280;65830;0.000;0.000;2023-04-25T11:31:31;98699.84;;;20.98;45.49
76858;BME280;65830;0.000;0.000;2023-04-25T11:33:57;98699.03;;;20.98;46.41
76858;BME280;65830;0.000;0.000;2023-04-25T11:36:23;98689.38;;;21.32;46.24
76858;BME280;65830;0.000;0.000;2023-04-25T11:38:52;98683.81;;;21.69;46.47
76858;BME280;65830;0.000;0.000;2023-04-25T11:41:19;98682.63;;;21.89;46.55
76858;BME280;65830;0.000;0.000;2023-04-25T11:43:44;98679.63;;;22.14;46.63
76858;BME280;65830;0.000;0.000;2023-04-25T11:46:10;98675.97;;;22.89;44.64
76858;BME280;65830;0.000;0.000;2023-04-25T11:48:45;98666.84;;;23.75;45.22
76858;BME280;65830;0.000;0.000;2023-04-25T11:51:11;98669.38;;;24.21;44.90
76858;BME280;65830;0.000;0.000;2023-04-25T11:53:40;98657.97;;;24.41;41.86
76858;BME280;65830;0.000;0.000;2023-04-25T11:56:10;98652.34;;;24.03;41.83
76858;BME280;65830;0.000;0.000;2023-04-25T12:01:31;98650.03;;;23.56;42.66
76858;BME280;65830;0.000;0.000;2023-04-25T12:03:57;98646.69;;;23.15;42.49
76858;BME280;65830;0.000;0.000;2023-04-25T12:06:26;98641.72;;;22.78;43.71
76858;BME280;65830;0.000;0.000;2023-04-25T12:11:53;98632.19;;;24.60;40.72
76858;BME280;65830;0.000;0.000;2023-04-25T12:14:26;98629.69;;;25.50;37.50
76858;BME280;65830;0.000;0.000;2023-04-25T12:16:55;98628.16;;;26.18;37.46
76858;BME280;65830;0.000;0.000;2023-04-25T12:19:22;98628.72;;;28.75;34.81
76858;BME280;65830;0.000;0.000;2023-04-25T12:21:48;98631.69;;;30.62;32.37
76858;BME280;65830;0.000;0.000;2023-04-25T12:26:47;98630.81;;;32.12;27.63
76858;BME280;65830;0.000;0.000;2023-04-25T12:29:19;98623.56;;;31.75;28.05
76858;BME280;65830;0.000;0.000;2023-04-25T12:31:45;98617.59;;;32.14;28.08
76858;BME280;65830;0.000;0.000;2023-04-25T12:34:11;98623.09;;;32.64;27.03
76858;BME280;65830;0.000;0.000;2023-04-25T12:36:37;98626.13;;;33.22;27.45
76858;BME280;65830;0.000;0.000;2023-04-25T12:39:02;98623.09;;;32.00;27.14
76858;BME280;65830;0.000;0.000;2023-04-25T12:41:29;98604.53;;;32.48;27.46
76858;BME280;65830;0.000;0.000;2023-04-25T12:43:55;98612.38;;;32.77;27.00
76858;BME280;65830;0.000;0.000;2023-04-25T12:46:20;98607.56;;;33.28;26.22
76858;BME280;65830;0.000;0.000;2023-04-25T12:48:46;98605.13;;;33.97;26.13
76858;BME280;65830;0.000;0.000;2023-04-25T12:51:14;98613.94;;;33.37;25.95
76858;BME280;65830;0.000;0.000;2023-04-25T12:53:40;98603.16;;;32.22;26.34
76858;BME280;65830;0.000;0.000;2023-04-25T12:56:06;98619.69;;;31.15;28.51
76858;BME280;65830;0.000;0.000;2023-04-25T12:58:32;98609.59;;;30.16;28.37
76858;BME280;65830;0.000;0.000;2023-04-25T13:00:58;98612.94;;;29.35;29.25
76858;BME280;65830;0.000;0.000;2023-04-25T13:03:24;98614.28;;;28.64;29.85
76858;BME280;65830;0.000;0.000;2023-04-25T13:05:51;98604.94;;;27.45;31.58
76858;BME280;65830;0.000;0.000;2023-04-25T13:08:18;98604.66;;;26.74;33.05
76858;BME280;65830;0.000;0.000;2023-04-25T13:10:43;98602.91;;;26.27;34.78
76858;BME280;65830;0.000;0.000;2023-04-25T13:13:16;98593.66;;;25.70;35.25
76858;BME280;65830;0.000;0.000;2023-04-25T13:15:58;98589.63;;;25.30;35.42
76858;BME280;65830;0.000;0.000;2023-04-25T13:18:23;98589.56;;;24.88;36.30
76858;BME280;65830;0.000;0.000;2023-04-25T13:20:52;98584.63;;;24.52;36.19
76858;BME280;65830;0.000;0.000;2023-04-25T13:23:17;98592.63;;;24.15;35.68
76858;BME280;65830;0.000;0.000;2023-04-25T13:25:43;98592.63;;;23.93;35.76
76858;BME280;65830;0.000;0.000;2023-04-25T13:28:08;98593.84;;;23.63;34.75
76858;BME280;65830;0.000;0.000;2023-04-25T13:30:34;98609.00;;;23.25;35.62
76858;BME280;65830;0.000;0.000;2023-04-25T13:32:59;98604.72;;;22.95;37.64
76858;BME280;65830;0.000;0.000;2023-04-25T13:35:28;98602.84;;;22.67;36.73
76858;BME280;65830;0.000;0.000;2023-04-25T13:37:54;98593.72;;;22.39;36.35
76858;BME280;65830;0.000;0.000;2023-04-25T13:40:20;98597.53;;;22.27;35.86
76858;BME280;65830;0.000;0.000;2023-04-25T13:42:46;98606.13;;;22.12;35.32
76858;BME280;65830;0.000;0.000;2023-04-25T13:45:11;98611.66;;;22.05;34.09
76858;BME280;65830;0.000;0.000;2023-04-25T13:47:37;98615.25;;;21.70;34.24
76858;BME280;65830;0.000;0.000;2023-04-25T13:50:03;98616.69;;;21.61;34.87
76858;BME280;65830;0.000;0.000;2023-04-25T13:52:31;98612.44;;;21.65;34.52
76858;BME280;65830;0.000;0.000;2023-04-25T13:54:57;98613.13;;;21.72;35.29
76858;BME280;65830;0.000;0.000;2023-04-25T13:57:22;98607.06;;;21.65;34.27
76858;BME280;65830;0.000;0.000;2023-04-25T13:59:48;98602.22;;;21.79;35.57
76858;BME280;65830;0.000;0.000;2023-04-25T14:02:13;98603.94;;;21.97;36.33
76858;BME280;65830;0.000;0.000;2023-04-25T14:04:39;98607.09;;;22.46;35.18
76858;BME280;65830;0.000;0.000;2023-04-25T14:07:05;98606.69;;;23.17;34.29
76858;BME280;65830;0.000;0.000;2023-04-25T14:09:30;98600.16;;;23.52;33.51
76858;BME280;65830;0.000;0.000;2023-04-25T14:11:56;98603.81;;;23.79;32.42
76858;BME280;65830;0.000;0.000;2023-04-25T14:14:21;98597.44;;;23.69;33.08
76858;BME280;65830;0.000;0.000;2023-04-25T14:16:47;98615.84;;;23.50;33.20
76858;BME280;65830;0.000;0.000;2023-04-25T14:19:14;98613.00;;;23.06;33.35
76858;BME280;65830;0.000;0.000;2023-04-25T14:21:39;98612.09;;;23.51;33.09
76858;BME280;65830;0.000;0.000;2023-04-25T14:24:05;98611.97;;;24.02;32.33
76858;BME280;65830;0.000;0.000;2023-04-25T14:26:30;98615.31;;;24.36;32.06
76858;BME280;65830;0.000;0.000;2023-04-25T14:28:56;98614.25;;;24.59;31.67
76858;BME280;65830;0.000;0.000;2023-04-25T14:31:22;98611.75;;;24.52;32.48
76858;BME280;65830;0.000;0.000;2023-04-25T14:33:47;98607.44;;;24.84;32.47
76858;BME280;65830;0.000;0.000;2023-04-25T14:36:13;98618.50;;;25.42;32.01
76858;BME280;65830;0.000;0.000;2023-04-25T14:38:39;98609.13;;;25.22;31.53
76858;BME280;65830;0.000;0.000;2023-04-25T14:41:05;98617.69;;;25.41;32.36
76858;BME280;65830;0.000;0.000;2023-04-25T14:43:34;98623.63;;;25.38;31.11
76858;BME280;65830;0.000;0.000;2023-04-25T14:45:59;98620.44;;;25.14;31.57
76858;BME280;65830;0.000;0.000;2023-04-25T14:48:25;98618.53;;;25.14;31.77
76858;BME280;65830;0.000;0.000;2023-04-25T14:50:51;98611.47;;;25.51;31.32
76858;BME280;65830;0.000;0.000;2023-04-25T14:53:17;98615.81;;;25.47;30.74
76858;BME280;65830;0.000;0.000;2023-04-25T14:55:42;98619.84;;;25.87;31.40
76858;BME280;65830;0.000;0.000;2023-04-25T14:58:07;98612.25;;;25.89;30.21
76858;BME280;65830;0.000;0.000;2023-04-25T15:00:33;98616.28;;;25.39;30.50
76858;BME280;65830;0.000;0.000;2023-04-25T15:02:59;98611.63;;;24.96;30.91
76858;BME280;65830;0.000;0.000;2023-04-25T15:05:24;98613.13;;;24.55;30.87
76858;BME280;65830;0.000;0.000;2023-04-25T15:07:50;98606.38;;;24.08;31.54
76858;BME280;65830;0.000;0.000;2023-04-25T15:10:16;98603.25;;;23.77;31.81
76858;BME280;65830;0.000;0.000;2023-04-25T15:12:42;98605.25;;;23.48;32.33
76858;BME280;65830;0.000;0.000;2023-04-25T15:15:08;98591.81;;;23.36;32.92
76858;BME280;65830;0.000;0.000;2023-04-25T15:17:37;98596.44;;;23.02;33.43
76858;BME280;65830;0.000;0.000;2023-04-25T15:20:03;98599.28;;;22.78;33.37
76858;BME280;65830;0.000;0.000;2023-04-25T15:22:30;98591.78;;;22.52;33.84
76858;BME280;65830;0.000;0.000;2023-04-25T15:24:56;98593.44;;;22.24;34.13
76858;BME280;65830;0.000;0.000;2023-04-25T15:27:21;98593.44;;;22.24;34.45